sensor_id;sensor_type;location;lat;lon;timestamp;P1;durP1;ratioP1;P2;durP2;ratioP2
36651;SDS011;53334;51.976;20.144;2023-08-12T00:00:02;13.43;;;9.23;;
36651;SDS011;53334;51.976;20.144;2023-08-12T00:02:46;15.65;;;9.80;;
36651;SDS011;53334;51.976;20.144;2023-08-12T00:05:19;17.42;;;9.40;;
36651;SDS011;53334;51.976;20.144;2023-08-12T00:07:53;14.40;;;8.88;;
36651;SDS011;53334;51.976;20.144;2023-08-12T00:10:26;15.55;;;10.00;;
36651;SDS011;53334;51.976;20.144;2023-08-12T00:13:00;16.67;;;10.05;;
36651;SDS011;53334;51.976;20.144;2023-08-12T00:15:33;14.63;;;9.88;;
36651;SDS011;53334;51.976;20.144;2023-08-12T00:18:07;17.23;;;10.05;;
36651;SDS011;53334;51.976;20.144;2023-08-12T00:20:41;18.42;;;9.57;;
36651;SDS011;53334;51.976;20.144;2023-08-12T00:23:14;14.48;;;8.98;;
36651;SDS011;53334;51.976;20.144;2023-08-12T00:28:22;13.18;;;8.68;;
36651;SDS011;53334;51.976;20.144;2023-08-12T00:30:55;14.02;;;9.80;;
36651;SDS011;53334;51.976;20.144;2023-08-12T00:33:30;14.82;;;10.48;;
36651;SDS011;53334;51.976;20.144;2023-08-12T00:36:03;16.65;;;9.98;;
36651;SDS011;53334;51.976;20.144;2023-08-12T00:38:37;15.15;;;10.10;;
36651;SDS011;53334;51.976;20.144;2023-08-12T00:41:11;14.05;;;10.43;;
36651;SDS011;53334;51.976;20.144;2023-08-12T00:43:44;16.50;;;9.35;;
36651;SDS011;53334;51.976;20.144;2023-08-12T00:46:18;16.23;;;9.82;;
36651;SDS011;53334;51.976;20.144;2023-08-12T00:48:52;15.13;;;8.90;;
36651;SDS011;53334;51.976;20.144;2023-08-12T00:51:26;16.20;;;9.52;;
36651;SDS011;53334;51.976;20.144;2023-08-12T00:56:35;12.88;;;9.20;;
36651;SDS011;53334;51.976;20.144;2023-08-12T00:59:09;16.38;;;10.30;;
36651;SDS011;53334;51.976;20.144;2023-08-12T01:01:43;11.95;;;9.18;;
36651;SDS011;53334;51.976;20.144;2023-08-12T01:04:18;17.85;;;9.95;;
36651;SDS011;53334;51.976;20.144;2023-08-12T01:06:52;13.15;;;9.30;;
36651;SDS011;53334;51.976;20.144;2023-08-12T01:09:25;15.27;;;10.38;;
36651;SDS011;53334;51.976;20.144;2023-08-12T01:12:01;17.05;;;11.23;;
36651;SDS011;53334;51.976;20.144;2023-08-12T01:14:39;15.38;;;9.77;;
36651;SDS011;53334;51.976;20.144;2023-08-12T01:17:19;14.95;;;9.77;;
36651;SDS011;53334;51.976;20.144;2023-08-12T01:19:55;16.70;;;9.80;;
36651;SDS011;53334;51.976;20.144;2023-08-12T01:22:29;14.60;;;9.50;;
36651;SDS011;53334;51.976;20.144;2023-08-12T01:25:06;16.95;;;10.05;;
36651;SDS011;53334;51.976;20.144;2023-08-12T01:27:41;20.08;;;10.23;;
36651;SDS011;53334;51.976;20.144;2023-08-12T01:30:14;17.88;;;9.98;;
36651;SDS011;53334;51.976;20.144;2023-08-12T01:32:50;12.85;;;8.40;;
36651;SDS011;53334;51.976;20.144;2023-08-12T01:35:28;15.13;;;10.43;;
36651;SDS011;53334;51.976;20.144;2023-08-12T01:38:06;14.40;;;9.25;;
36651;SDS011;53334;51.976;20.144;2023-08-12T01:40:44;16.30;;;9.32;;
36651;SDS011;53334;51.976;20.144;2023-08-12T01:43:19;19.02;;;10.18;;
36651;SDS011;53334;51.976;20.144;2023-08-12T01:45:53;13.90;;;8.45;;
36651;SDS011;53334;51.976;20.144;2023-08-12T01:48:26;15.77;;;9.70;;
36651;SDS011;53334;51.976;20.144;2023-08-12T01:50:59;13.13;;;9.13;;
36651;SDS011;53334;51.976;20.144;2023-08-12T01:53:33;16.50;;;10.73;;
36651;SDS011;53334;51.976;20.144;2023-08-12T01:56:07;15.45;;;11.15;;
36651;SDS011;53334;51.976;20.144;2023-08-12T01:58:41;14.27;;;9.85;;
36651;SDS011;53334;51.976;20.144;2023-08-12T02:01:14;14.93;;;9.70;;
36651;SDS011;53334;51.976;20.144;2023-08-12T02:03:48;14.20;;;9.98;;
36651;SDS011;53334;51.976;20.144;2023-08-12T02:06:21;19.48;;;10.40;;
36651;SDS011;53334;51.976;20.144;2023-08-12T02:08:54;16.02;;;10.90;;
36651;SDS011;53334;51.976;20.144;2023-08-12T02:11:30;16.48;;;10.50;;
36651;SDS011;53334;51.976;20.144;2023-08-12T02:14:03;13.27;;;9.88;;
36651;SDS011;53334;51.976;20.144;2023-08-12T02:16:37;14.82;;;10.65;;
36651;SDS011;53334;51.976;20.144;2023-08-12T02:19:11;15.82;;;9.77;;
36651;SDS011;53334;51.976;20.144;2023-08-12T02:21:44;19.23;;;10.95;;
36651;SDS011;53334;51.976;20.144;2023-08-12T02:24:17;17.17;;;11.10;;
36651;SDS011;53334;51.976;20.144;2023-08-12T02:26:52;13.90;;;9.88;;
36651;SDS011;53334;51.976;20.144;2023-08-12T02:29:25;12.43;;;9.02;;
36651;SDS011;53334;51.976;20.144;2023-08-12T02:31:59;15.80;;;9.73;;
36651;SDS011;53334;51.976;20.144;2023-08-12T02:34:33;15.68;;;9.82;;
36651;SDS011;53334;51.976;20.144;2023-08-12T02:37:06;15.75;;;9.40;;
36651;SDS011;53334;51.976;20.144;2023-08-12T02:39:40;13.43;;;10.00;;
36651;SDS011;53334;51.976;20.144;2023-08-12T02:42:15;17.35;;;9.77;;
36651;SDS011;53334;51.976;20.144;2023-08-12T02:44:48;14.07;;;9.88;;
36651;SDS011;53334;51.976;20.144;2023-08-12T02:47:21;15.35;;;9.93;;
36651;SDS011;53334;51.976;20.144;2023-08-12T02:49:55;18.77;;;9.45;;
36651;SDS011;53334;51.976;20.144;2023-08-12T02:52:28;16.42;;;9.70;;
36651;SDS011;53334;51.976;20.144;2023-08-12T02:55:01;14.93;;;9.77;;
36651;SDS011;53334;51.976;20.144;2023-08-12T02:57:36;15.50;;;10.20;;
36651;SDS011;53334;51.976;20.144;2023-08-12T03:00:10;13.57;;;9.63;;
36651;SDS011;53334;51.976;20.144;2023-08-12T03:02:44;13.52;;;9.32;;
36651;SDS011;53334;51.976;20.144;2023-08-12T03:05:18;15.00;;;9.48;;
36651;SDS011;53334;51.976;20.144;2023-08-12T03:07:52;15.40;;;9.25;;
36651;SDS011;53334;51.976;20.144;2023-08-12T03:10:25;12.27;;;8.93;;
36651;SDS011;53334;51.976;20.144;2023-08-12T03:13:00;19.92;;;11.20;;
36651;SDS011;53334;51.976;20.144;2023-08-12T03:15:34;15.80;;;9.05;;
36651;SDS011;53334;51.976;20.144;2023-08-12T03:20:42;14.88;;;10.13;;
36651;SDS011;53334;51.976;20.144;2023-08-12T03:23:15;13.38;;;9.80;;
36651;SDS011;53334;51.976;20.144;2023-08-12T03:25:49;12.00;;;8.77;;
36651;SDS011;53334;51.976;20.144;2023-08-12T03:28:24;12.73;;;9.05;;
36651;SDS011;53334;51.976;20.144;2023-08-12T03:30:58;10.95;;;8.70;;
36651;SDS011;53334;51.976;20.144;2023-08-12T03:33:32;16.48;;;9.15;;
36651;SDS011;53334;51.976;20.144;2023-08-12T03:36:06;13.70;;;8.70;;
36651;SDS011;53334;51.976;20.144;2023-08-12T03:38:40;10.52;;;7.90;;
36651;SDS011;53334;51.976;20.144;2023-08-12T03:41:19;11.93;;;9.10;;
36651;SDS011;53334;51.976;20.144;2023-08-12T03:46:28;11.52;;;7.97;;
36651;SDS011;53334;51.976;20.144;2023-08-12T03:49:02;11.85;;;8.52;;
36651;SDS011;53334;51.976;20.144;2023-08-12T03:51:36;10.65;;;8.23;;
36651;SDS011;53334;51.976;20.144;2023-08-12T03:54:09;12.13;;;7.80;;
36651;SDS011;53334;51.976;20.144;2023-08-12T03:56:44;12.77;;;8.10;;
36651;SDS011;53334;51.976;20.144;2023-08-12T03:59:19;14.45;;;8.15;;
36651;SDS011;53334;51.976;20.144;2023-08-12T04:01:52;14.75;;;8.82;;
36651;SDS011;53334;51.976;20.144;2023-08-12T04:04:25;11.18;;;7.93;;
36651;SDS011;53334;51.976;20.144;2023-08-12T04:07:00;10.57;;;7.55;;
36651;SDS011;53334;51.976;20.144;2023-08-12T04:09:33;13.32;;;7.82;;
36651;SDS011;53334;51.976;20.144;2023-08-12T04:12:06;11.25;;;8.10;;
36651;SDS011;53334;51.976;20.144;2023-08-12T04:14:41;10.52;;;7.80;;
36651;SDS011;53334;51.976;20.144;2023-08-12T04:17:14;12.32;;;7.50;;
36651;SDS011;53334;51.976;20.144;2023-08-12T04:19:47;11.45;;;7.40;;
36651;SDS011;53334;51.976;20.144;2023-08-12T04:22:21;11.10;;;7.28;;
36651;SDS011;53334;51.976;20.144;2023-08-12T04:24:54;10.70;;;8.23;;
36651;SDS011;53334;51.976;20.144;2023-08-12T04:27:28;11.75;;;7.93;;
36651;SDS011;53334;51.976;20.144;2023-08-12T04:30:05;8.35;;;6.03;;
36651;SDS011;53334;51.976;20.144;2023-08-12T04:32:39;11.65;;;8.13;;
36651;SDS011;53334;51.976;20.144;2023-08-12T04:37:47;10.23;;;7.60;;
36651;SDS011;53334;51.976;20.144;2023-08-12T04:40:21;10.73;;;6.82;;
36651;SDS011;53334;51.976;20.144;2023-08-12T04:42:55;11.32;;;7.50;;
36651;SDS011;53334;51.976;20.144;2023-08-12T04:45:30;11.80;;;8.00;;
36651;SDS011;53334;51.976;20.144;2023-08-12T04:48:04;11.07;;;6.97;;
36651;SDS011;53334;51.976;20.144;2023-08-12T04:50:38;9.10;;;6.03;;
36651;SDS011;53334;51.976;20.144;2023-08-12T04:53:12;7.93;;;6.45;;
36651;SDS011;53334;51.976;20.144;2023-08-12T04:55:45;7.55;;;6.25;;
36651;SDS011;53334;51.976;20.144;2023-08-12T04:58:23;13.15;;;7.38;;
36651;SDS011;53334;51.976;20.144;2023-08-12T05:03:33;7.60;;;5.75;;
36651;SDS011;53334;51.976;20.144;2023-08-12T05:06:07;7.95;;;5.72;;
36651;SDS011;53334;51.976;20.144;2023-08-12T05:08:40;9.70;;;6.82;;
36651;SDS011;53334;51.976;20.144;2023-08-12T05:11:14;11.65;;;7.10;;
36651;SDS011;53334;51.976;20.144;2023-08-12T05:13:48;13.13;;;6.57;;
36651;SDS011;53334;51.976;20.144;2023-08-12T05:16:23;9.35;;;6.43;;
36651;SDS011;53334;51.976;20.144;2023-08-12T05:18:56;8.52;;;6.55;;
36651;SDS011;53334;51.976;20.144;2023-08-12T05:21:30;8.60;;;6.15;;
36651;SDS011;53334;51.976;20.144;2023-08-12T05:24:04;9.13;;;6.78;;
36651;SDS011;53334;51.976;20.144;2023-08-12T05:29:11;7.65;;;5.85;;
36651;SDS011;53334;51.976;20.144;2023-08-12T05:31:46;8.10;;;5.90;;
36651;SDS011;53334;51.976;20.144;2023-08-12T05:34:19;7.82;;;5.70;;
36651;SDS011;53334;51.976;20.144;2023-08-12T05:36:53;8.57;;;6.60;;
36651;SDS011;53334;51.976;20.144;2023-08-12T05:39:26;10.00;;;5.72;;
36651;SDS011;53334;51.976;20.144;2023-08-12T05:41:59;10.93;;;6.05;;
36651;SDS011;53334;51.976;20.144;2023-08-12T05:44:32;6.72;;;5.32;;
36651;SDS011;53334;51.976;20.144;2023-08-12T05:47:07;8.95;;;5.55;;
36651;SDS011;53334;51.976;20.144;2023-08-12T05:49:41;9.20;;;5.88;;
36651;SDS011;53334;51.976;20.144;2023-08-12T05:52:15;8.70;;;6.00;;
36651;SDS011;53334;51.976;20.144;2023-08-12T05:54:48;8.00;;;5.30;;
36651;SDS011;53334;51.976;20.144;2023-08-12T05:57:21;7.35;;;5.68;;
36651;SDS011;53334;51.976;20.144;2023-08-12T05:59:57;8.10;;;5.07;;
36651;SDS011;53334;51.976;20.144;2023-08-12T06:02:32;6.93;;;4.85;;
36651;SDS011;53334;51.976;20.144;2023-08-12T06:05:06;9.85;;;5.50;;
36651;SDS011;53334;51.976;20.144;2023-08-12T06:07:40;5.63;;;4.97;;
36651;SDS011;53334;51.976;20.144;2023-08-12T06:10:13;7.05;;;5.82;;
36651;SDS011;53334;51.976;20.144;2023-08-12T06:12:47;7.75;;;6.07;;
36651;SDS011;53334;51.976;20.144;2023-08-12T06:15:20;7.75;;;5.18;;
36651;SDS011;53334;51.976;20.144;2023-08-12T06:17:55;11.25;;;5.43;;
36651;SDS011;53334;51.976;20.144;2023-08-12T06:20:28;7.38;;;5.13;;
36651;SDS011;53334;51.976;20.144;2023-08-12T06:23:02;9.70;;;5.65;;
36651;SDS011;53334;51.976;20.144;2023-08-12T06:25:35;7.47;;;5.78;;
36651;SDS011;53334;51.976;20.144;2023-08-12T06:28:08;8.32;;;5.10;;
36651;SDS011;53334;51.976;20.144;2023-08-12T06:30:44;8.32;;;4.53;;
36651;SDS011;53334;51.976;20.144;2023-08-12T06:33:21;8.02;;;5.70;;
36651;SDS011;53334;51.976;20.144;2023-08-12T06:35:54;11.73;;;5.32;;
36651;SDS011;53334;51.976;20.144;2023-08-12T06:38:28;7.72;;;5.30;;
36651;SDS011;53334;51.976;20.144;2023-08-12T06:41:01;5.95;;;4.57;;
36651;SDS011;53334;51.976;20.144;2023-08-12T06:43:34;10.70;;;4.25;;
36651;SDS011;53334;51.976;20.144;2023-08-12T06:46:08;8.68;;;5.00;;
36651;SDS011;53334;51.976;20.144;2023-08-12T06:48:42;6.05;;;4.97;;
36651;SDS011;53334;51.976;20.144;2023-08-12T06:51:15;7.63;;;4.78;;
36651;SDS011;53334;51.976;20.144;2023-08-12T06:53:49;8.05;;;4.93;;
36651;SDS011;53334;51.976;20.144;2023-08-12T06:56:22;7.63;;;5.07;;
36651;SDS011;53334;51.976;20.144;2023-08-12T06:58:56;5.63;;;4.55;;
36651;SDS011;53334;51.976;20.144;2023-08-12T07:01:29;6.57;;;4.20;;
36651;SDS011;53334;51.976;20.144;2023-08-12T07:04:04;7.53;;;4.97;;
36651;SDS011;53334;51.976;20.144;2023-08-12T07:06:37;10.05;;;4.68;;
36651;SDS011;53334;51.976;20.144;2023-08-12T07:09:11;9.43;;;4.93;;
36651;SDS011;53334;51.976;20.144;2023-08-12T07:11:44;6.22;;;3.78;;
36651;SDS011;53334;51.976;20.144;2023-08-12T07:14:17;6.53;;;4.43;;
36651;SDS011;53334;51.976;20.144;2023-08-12T07:16:51;8.00;;;4.45;;
36651;SDS011;53334;51.976;20.144;2023-08-12T07:19:25;6.00;;;4.32;;
36651;SDS011;53334;51.976;20.144;2023-08-12T07:21:59;7.20;;;4.00;;
36651;SDS011;53334;51.976;20.144;2023-08-12T07:24:32;11.10;;;4.25;;
36651;SDS011;53334;51.976;20.144;2023-08-12T07:27:05;9.48;;;4.72;;
36651;SDS011;53334;51.976;20.144;2023-08-12T07:29:38;10.63;;;4.13;;
36651;SDS011;53334;51.976;20.144;2023-08-12T07:32:12;13.57;;;5.25;;
36651;SDS011;53334;51.976;20.144;2023-08-12T07:34:47;9.02;;;4.85;;
36651;SDS011;53334;51.976;20.144;2023-08-12T07:37:20;7.18;;;4.13;;
36651;SDS011;53334;51.976;20.144;2023-08-12T07:39:54;8.82;;;3.92;;
36651;SDS011;53334;51.976;20.144;2023-08-12T07:42:27;10.75;;;3.58;;
36651;SDS011;53334;51.976;20.144;2023-08-12T07:45:00;6.70;;;3.90;;
36651;SDS011;53334;51.976;20.144;2023-08-12T07:47:34;8.40;;;3.30;;
36651;SDS011;53334;51.976;20.144;2023-08-12T07:50:12;8.73;;;3.15;;
36651;SDS011;53334;51.976;20.144;2023-08-12T07:52:45;9.38;;;3.35;;
36651;SDS011;53334;51.976;20.144;2023-08-12T07:55:18;6.82;;;3.83;;
36651;SDS011;53334;51.976;20.144;2023-08-12T07:57:51;8.88;;;3.53;;
36651;SDS011;53334;51.976;20.144;2023-08-12T08:00:25;7.65;;;2.65;;
36651;SDS011;53334;51.976;20.144;2023-08-12T08:02:58;12.95;;;3.72;;
36651;SDS011;53334;51.976;20.144;2023-08-12T08:05:33;10.27;;;3.10;;
36651;SDS011;53334;51.976;20.144;2023-08-12T08:08:06;11.88;;;3.08;;
36651;SDS011;53334;51.976;20.144;2023-08-12T08:10:40;3.17;;;2.60;;
36651;SDS011;53334;51.976;20.144;2023-08-12T08:13:13;7.40;;;3.80;;
36651;SDS011;53334;51.976;20.144;2023-08-12T08:15:46;5.63;;;3.05;;
36651;SDS011;53334;51.976;20.144;2023-08-12T08:18:20;6.57;;;3.20;;
36651;SDS011;53334;51.976;20.144;2023-08-12T08:20:54;9.73;;;2.95;;
36651;SDS011;53334;51.976;20.144;2023-08-12T08:23:28;12.13;;;3.90;;
36651;SDS011;53334;51.976;20.144;2023-08-12T08:26:01;9.90;;;3.92;;
36651;SDS011;53334;51.976;20.144;2023-08-12T08:28:34;7.70;;;3.10;;
36651;SDS011;53334;51.976;20.144;2023-08-12T08:31:08;10.20;;;3.78;;
36651;SDS011;53334;51.976;20.144;2023-08-12T08:33:42;14.30;;;4.63;;
36651;SDS011;53334;51.976;20.144;2023-08-12T08:36:17;13.05;;;5.60;;
36651;SDS011;53334;51.976;20.144;2023-08-12T08:38:51;16.27;;;4.95;;
36651;SDS011;53334;51.976;20.144;2023-08-12T08:41:24;12.15;;;4.95;;
36651;SDS011;53334;51.976;20.144;2023-08-12T08:44:01;16.20;;;4.93;;
36651;SDS011;53334;51.976;20.144;2023-08-12T08:46:35;9.07;;;4.60;;
36651;SDS011;53334;51.976;20.144;2023-08-12T08:49:09;19.65;;;4.88;;
36651;SDS011;53334;51.976;20.144;2023-08-12T08:51:45;15.93;;;4.60;;
36651;SDS011;53334;51.976;20.144;2023-08-12T08:54:19;18.48;;;4.65;;
36651;SDS011;53334;51.976;20.144;2023-08-12T08:56:53;11.38;;;4.25;;
36651;SDS011;53334;51.976;20.144;2023-08-12T08:59:46;13.40;;;4.50;;
36651;SDS011;53334;51.976;20.144;2023-08-12T09:02:29;13.63;;;4.05;;
36651;SDS011;53334;51.976;20.144;2023-08-12T09:05:03;12.95;;;4.43;;
36651;SDS011;53334;51.976;20.144;2023-08-12T09:07:40;12.77;;;4.13;;
36651;SDS011;53334;51.976;20.144;2023-08-12T09:10:14;11.10;;;3.90;;
36651;SDS011;53334;51.976;20.144;2023-08-12T09:12:49;10.90;;;4.03;;
36651;SDS011;53334;51.976;20.144;2023-08-12T09:15:24;10.40;;;3.72;;
36651;SDS011;53334;51.976;20.144;2023-08-12T09:17:57;13.00;;;4.10;;
36651;SDS011;53334;51.976;20.144;2023-08-12T09:20:31;12.05;;;3.63;;
36651;SDS011;53334;51.976;20.144;2023-08-12T09:23:06;13.98;;;4.00;;
36651;SDS011;53334;51.976;20.144;2023-08-12T09:25:42;10.65;;;4.00;;
36651;SDS011;53334;51.976;20.144;2023-08-12T09:28:16;10.02;;;4.32;;
36651;SDS011;53334;51.976;20.144;2023-08-12T09:30:50;9.25;;;3.78;;
36651;SDS011;53334;51.976;20.144;2023-08-12T09:33:24;7.22;;;3.50;;
36651;SDS011;53334;51.976;20.144;2023-08-12T09:35:58;10.48;;;4.28;;
36651;SDS011;53334;51.976;20.144;2023-08-12T09:38:33;6.90;;;3.55;;
36651;SDS011;53334;51.976;20.144;2023-08-12T09:41:06;7.35;;;3.17;;
36651;SDS011;53334;51.976;20.144;2023-08-12T09:46:15;7.43;;;2.90;;
36651;SDS011;53334;51.976;20.144;2023-08-12T09:48:49;8.88;;;3.40;;
36651;SDS011;53334;51.976;20.144;2023-08-12T09:51:23;7.28;;;3.28;;
36651;SDS011;53334;51.976;20.144;2023-08-12T09:53:58;6.60;;;3.25;;
36651;SDS011;53334;51.976;20.144;2023-08-12T09:56:33;7.43;;;3.05;;
36651;SDS011;53334;51.976;20.144;2023-08-12T09:59:09;6.90;;;3.05;;
36651;SDS011;53334;51.976;20.144;2023-08-12T10:01:43;7.55;;;3.28;;
36651;SDS011;53334;51.976;20.144;2023-08-12T10:04:19;7.82;;;3.65;;
36651;SDS011;53334;51.976;20.144;2023-08-12T10:06:56;5.15;;;3.22;;
36651;SDS011;53334;51.976;20.144;2023-08-12T10:12:05;6.65;;;3.35;;
36651;SDS011;53334;51.976;20.144;2023-08-12T10:14:39;3.50;;;3.08;;
36651;SDS011;53334;51.976;20.144;2023-08-12T10:17:12;7.97;;;3.22;;
36651;SDS011;53334;51.976;20.144;2023-08-12T10:22:41;6.45;;;3.17;;
36651;SDS011;53334;51.976;20.144;2023-08-12T10:25:19;8.15;;;3.50;;
36651;SDS011;53334;51.976;20.144;2023-08-12T10:27:54;4.07;;;2.88;;
36651;SDS011;53334;51.976;20.144;2023-08-12T10:30:28;6.75;;;3.40;;
36651;SDS011;53334;51.976;20.144;2023-08-12T10:33:02;6.80;;;2.88;;
36651;SDS011;53334;51.976;20.144;2023-08-12T10:35:41;7.22;;;3.30;;
36651;SDS011;53334;51.976;20.144;2023-08-12T10:38:16;4.00;;;2.70;;
36651;SDS011;53334;51.976;20.144;2023-08-12T10:40:52;3.80;;;2.72;;
36651;SDS011;53334;51.976;20.144;2023-08-12T10:43:49;5.57;;;2.85;;
36651;SDS011;53334;51.976;20.144;2023-08-12T10:46:28;5.80;;;3.13;;
36651;SDS011;53334;51.976;20.144;2023-08-12T10:49:03;3.75;;;2.58;;
36651;SDS011;53334;51.976;20.144;2023-08-12T10:51:41;5.18;;;3.03;;
36651;SDS011;53334;51.976;20.144;2023-08-12T10:54:20;3.40;;;2.58;;
36651;SDS011;53334;51.976;20.144;2023-08-12T10:57:09;5.53;;;2.28;;
36651;SDS011;53334;51.976;20.144;2023-08-12T10:59:53;4.22;;;3.03;;
36651;SDS011;53334;51.976;20.144;2023-08-12T11:02:27;3.95;;;2.63;;
36651;SDS011;53334;51.976;20.144;2023-08-12T11:05:02;3.65;;;2.78;;
36651;SDS011;53334;51.976;20.144;2023-08-12T11:07:38;4.70;;;2.78;;
36651;SDS011;53334;51.976;20.144;2023-08-12T11:10:12;5.55;;;3.30;;
36651;SDS011;53334;51.976;20.144;2023-08-12T11:12:53;4.78;;;2.92;;
36651;SDS011;53334;51.976;20.144;2023-08-12T11:15:30;2.95;;;2.55;;
36651;SDS011;53334;51.976;20.144;2023-08-12T11:18:05;3.92;;;2.85;;
36651;SDS011;53334;51.976;20.144;2023-08-12T11:20:40;2.75;;;2.30;;
36651;SDS011;53334;51.976;20.144;2023-08-12T11:23:13;2.53;;;2.33;;
36651;SDS011;53334;51.976;20.144;2023-08-12T11:25:47;3.75;;;2.80;;
36651;SDS011;53334;51.976;20.144;2023-08-12T11:28:24;4.30;;;2.60;;
36651;SDS011;53334;51.976;20.144;2023-08-12T11:30:57;3.63;;;2.65;;
36651;SDS011;53334;51.976;20.144;2023-08-12T11:33:31;6.15;;;2.50;;
36651;SDS011;53334;51.976;20.144;2023-08-12T11:36:05;5.43;;;2.72;;
36651;SDS011;53334;51.976;20.144;2023-08-12T11:38:39;3.65;;;2.17;;
36651;SDS011;53334;51.976;20.144;2023-08-12T11:41:12;3.35;;;2.58;;
36651;SDS011;53334;51.976;20.144;2023-08-12T11:43:47;4.40;;;2.88;;
36651;SDS011;53334;51.976;20.144;2023-08-12T11:46:20;3.78;;;2.13;;
36651;SDS011;53334;51.976;20.144;2023-08-12T11:48:53;4.60;;;2.92;;
36651;SDS011;53334;51.976;20.144;2023-08-12T11:51:27;2.50;;;2.25;;
36651;SDS011;53334;51.976;20.144;2023-08-12T11:54:00;6.15;;;2.70;;
36651;SDS011;53334;51.976;20.144;2023-08-12T11:56:33;4.80;;;2.67;;
36651;SDS011;53334;51.976;20.144;2023-08-12T11:59:08;3.55;;;2.45;;
36651;SDS011;53334;51.976;20.144;2023-08-12T12:01:45;2.90;;;2.33;;
36651;SDS011;53334;51.976;20.144;2023-08-12T12:04:21;4.47;;;2.33;;
36651;SDS011;53334;51.976;20.144;2023-08-12T12:06:55;2.80;;;2.13;;
36651;SDS011;53334;51.976;20.144;2023-08-12T12:09:28;2.35;;;2.10;;
36651;SDS011;53334;51.976;20.144;2023-08-12T12:12:03;2.53;;;1.95;;
36651;SDS011;53334;51.976;20.144;2023-08-12T12:14:38;3.90;;;2.70;;
36651;SDS011;53334;51.976;20.144;2023-08-12T12:17:11;2.90;;;2.40;;
36651;SDS011;53334;51.976;20.144;2023-08-12T12:19:44;6.13;;;3.00;;
36651;SDS011;53334;51.976;20.144;2023-08-12T12:22:18;2.47;;;2.25;;
36651;SDS011;53334;51.976;20.144;2023-08-12T12:24:51;3.28;;;2.63;;
36651;SDS011;53334;51.976;20.144;2023-08-12T12:27:24;2.40;;;2.20;;
36651;SDS011;53334;51.976;20.144;2023-08-12T12:29:59;2.97;;;2.28;;
36651;SDS011;53334;51.976;20.144;2023-08-12T12:32:32;3.80;;;2.60;;
36651;SDS011;53334;51.976;20.144;2023-08-12T12:35:06;3.47;;;2.22;;
36651;SDS011;53334;51.976;20.144;2023-08-12T12:38:05;5.97;;;2.67;;
36651;SDS011;53334;51.976;20.144;2023-08-12T12:40:38;4.05;;;2.67;;
36651;SDS011;53334;51.976;20.144;2023-08-12T12:43:11;5.28;;;2.63;;
36651;SDS011;53334;51.976;20.144;2023-08-12T12:45:46;5.43;;;3.15;;
36651;SDS011;53334;51.976;20.144;2023-08-12T12:48:20;5.22;;;2.72;;
36651;SDS011;53334;51.976;20.144;2023-08-12T12:50:53;12.68;;;3.50;;
36651;SDS011;53334;51.976;20.144;2023-08-12T12:53:26;11.32;;;2.65;;
36651;SDS011;53334;51.976;20.144;2023-08-12T12:56:00;9.13;;;2.42;;
36651;SDS011;53334;51.976;20.144;2023-08-12T12:58:36;3.00;;;2.40;;
36651;SDS011;53334;51.976;20.144;2023-08-12T13:01:11;6.53;;;2.55;;
36651;SDS011;53334;51.976;20.144;2023-08-12T13:03:45;3.50;;;2.40;;
36651;SDS011;53334;51.976;20.144;2023-08-12T13:06:18;4.70;;;2.65;;
36651;SDS011;53334;51.976;20.144;2023-08-12T13:08:51;2.58;;;2.35;;
36651;SDS011;53334;51.976;20.144;2023-08-12T13:11:25;3.03;;;2.55;;
36651;SDS011;53334;51.976;20.144;2023-08-12T13:13:58;3.03;;;2.30;;
36651;SDS011;53334;51.976;20.144;2023-08-12T13:16:33;3.83;;;2.70;;
36651;SDS011;53334;51.976;20.144;2023-08-12T13:19:06;8.95;;;2.88;;
36651;SDS011;53334;51.976;20.144;2023-08-12T13:21:40;4.80;;;2.78;;
36651;SDS011;53334;51.976;20.144;2023-08-12T13:24:13;6.20;;;2.30;;
36651;SDS011;53334;51.976;20.144;2023-08-12T13:26:47;4.30;;;3.08;;
36651;SDS011;53334;51.976;20.144;2023-08-12T13:29:20;8.55;;;3.05;;
36651;SDS011;53334;51.976;20.144;2023-08-12T13:31:55;5.43;;;2.63;;
36651;SDS011;53334;51.976;20.144;2023-08-12T13:34:28;8.10;;;2.70;;
36651;SDS011;53334;51.976;20.144;2023-08-12T13:37:02;5.55;;;2.70;;
36651;SDS011;53334;51.976;20.144;2023-08-12T13:39:36;5.72;;;2.85;;
36651;SDS011;53334;51.976;20.144;2023-08-12T13:42:09;2.85;;;2.30;;
36651;SDS011;53334;51.976;20.144;2023-08-12T13:44:43;6.75;;;3.00;;
36651;SDS011;53334;51.976;20.144;2023-08-12T13:47:17;5.45;;;2.38;;
36651;SDS011;53334;51.976;20.144;2023-08-12T13:49:51;3.90;;;2.42;;
36651;SDS011;53334;51.976;20.144;2023-08-12T13:52:24;6.22;;;2.30;;
36651;SDS011;53334;51.976;20.144;2023-08-12T13:54:57;2.88;;;2.25;;
36651;SDS011;53334;51.976;20.144;2023-08-12T14:00:04;9.80;;;2.33;;
36651;SDS011;53334;51.976;20.144;2023-08-12T14:02:47;10.77;;;2.38;;
36651;SDS011;53334;51.976;20.144;2023-08-12T14:05:21;7.30;;;2.47;;
36651;SDS011;53334;51.976;20.144;2023-08-12T14:07:54;5.30;;;2.65;;
36651;SDS011;53334;51.976;20.144;2023-08-12T14:10:27;3.70;;;2.60;;
36651;SDS011;53334;51.976;20.144;2023-08-12T14:13:00;8.85;;;2.60;;
36651;SDS011;53334;51.976;20.144;2023-08-12T14:15:34;7.93;;;2.28;;
36651;SDS011;53334;51.976;20.144;2023-08-12T14:18:08;4.13;;;2.72;;
36651;SDS011;53334;51.976;20.144;2023-08-12T14:20:42;4.28;;;2.45;;
36651;SDS011;53334;51.976;20.144;2023-08-12T14:23:15;5.72;;;2.40;;
36651;SDS011;53334;51.976;20.144;2023-08-12T14:25:48;7.00;;;3.10;;
36651;SDS011;53334;51.976;20.144;2023-08-12T14:28:21;4.13;;;2.63;;
36651;SDS011;53334;51.976;20.144;2023-08-12T14:33:30;7.85;;;2.83;;
36651;SDS011;53334;51.976;20.144;2023-08-12T14:36:03;3.25;;;2.63;;
36651;SDS011;53334;51.976;20.144;2023-08-12T14:38:38;4.78;;;2.85;;
36651;SDS011;53334;51.976;20.144;2023-08-12T14:41:12;6.22;;;2.53;;
36651;SDS011;53334;51.976;20.144;2023-08-12T14:43:45;7.32;;;2.70;;
36651;SDS011;53334;51.976;20.144;2023-08-12T14:46:18;7.00;;;2.40;;
36651;SDS011;53334;51.976;20.144;2023-08-12T14:48:53;14.27;;;2.63;;
36651;SDS011;53334;51.976;20.144;2023-08-12T14:51:28;4.85;;;2.55;;
36651;SDS011;53334;51.976;20.144;2023-08-12T14:54:02;6.15;;;2.35;;
36651;SDS011;53334;51.976;20.144;2023-08-12T14:56:35;8.82;;;2.55;;
36651;SDS011;53334;51.976;20.144;2023-08-12T14:59:09;6.90;;;2.60;;
36651;SDS011;53334;51.976;20.144;2023-08-12T15:01:42;3.65;;;2.28;;
36651;SDS011;53334;51.976;20.144;2023-08-12T15:04:17;8.30;;;2.75;;
36651;SDS011;53334;51.976;20.144;2023-08-12T15:06:50;4.13;;;2.20;;
36651;SDS011;53334;51.976;20.144;2023-08-12T15:09:23;3.38;;;2.45;;
36651;SDS011;53334;51.976;20.144;2023-08-12T15:11:57;4.47;;;2.20;;
36651;SDS011;53334;51.976;20.144;2023-08-12T15:14:30;6.90;;;3.00;;
36651;SDS011;53334;51.976;20.144;2023-08-12T15:19:38;4.68;;;2.08;;
36651;SDS011;53334;51.976;20.144;2023-08-12T15:22:12;6.80;;;2.30;;
36651;SDS011;53334;51.976;20.144;2023-08-12T15:24:45;9.88;;;2.55;;
36651;SDS011;53334;51.976;20.144;2023-08-12T15:27:19;5.68;;;2.47;;
36651;SDS011;53334;51.976;20.144;2023-08-12T15:29:52;3.38;;;2.38;;
36651;SDS011;53334;51.976;20.144;2023-08-12T15:32:26;3.88;;;2.13;;
36651;SDS011;53334;51.976;20.144;2023-08-12T15:35:01;7.28;;;3.22;;
36651;SDS011;53334;51.976;20.144;2023-08-12T15:37:34;3.22;;;2.30;;
36651;SDS011;53334;51.976;20.144;2023-08-12T15:40:08;6.20;;;2.33;;
36651;SDS011;53334;51.976;20.144;2023-08-12T15:42:42;4.22;;;2.60;;